Time;durP1;ratioP1;P1;durP2;ratioP2;P2;SDS_P1;SDS_P2;PMS_P1;PMS_P2;Temp;Humidity;BMP_temperature;BMP_pressure;BME280_temperature;BME280_humidity;BME280_pressure;Samples;Min_cycle;Max_cycle;Signal;HPM_P1;HPM_P2
2022/01/11 00:00:11;;;;;;;52.70;32.15;;;;;;;;;;6257499;28;20057;-67
2022/01/11 00:03:13;;;;;;;59.03;32.53;;;;;;;;;;6253565;28;20045;-67
2022/01/11 00:06:28;;;;;;;59.97;34.15;;;;;;;;;;6255315;28;20464;-67
2022/01/11 00:09:38;;;;;;;58.33;32.92;;;;;;;;;;6258373;28;20069;-67
2022/01/11 00:12:39;;;;;;;60.05;32.55;;;;;;;;;;6258900;28;20533;-67
2022/01/11 00:15:41;;;;;;;53.75;32.10;;;;;;;;;;6254400;28;20176;-67
2022/01/11 00:18:42;;;;;;;54.80;31.98;;;;;;;;;;6256161;28;20513;-67
2022/01/11 00:21:47;;;;;;;57.90;32.20;;;;;;;;;;6258404;28;20186;-66
2022/01/11 00:24:49;;;;;;;102.43;50.95;;;;;;;;;;6260962;28;20071;-68
2022/01/11 00:27:51;;;;;;;59.47;34.28;;;;;;;;;;6258196;28;20041;-67
2022/01/11 00:30:53;;;;;;;94.15;49.17;;;;;;;;;;6252848;28;20194;-67
2022/01/11 00:33:55;;;;;;;76.75;40.70;;;;;;;;;;6253433;28;20045;-67
2022/01/11 00:36:56;;;;;;;109.43;47.78;;;;;;;;;;6252541;28;20123;-69
2022/01/11 00:40:00;;;;;;;155.10;66.72;;;;;;;;;;6255948;28;20083;-68
2022/01/11 00:43:02;;;;;;;66.03;37.22;;;;;;;;;;6249999;28;20075;-68
2022/01/11 00:46:05;;;;;;;50.42;29.27;;;;;;;;;;6253589;28;20152;-68
2022/01/11 00:49:06;;;;;;;49.65;28.35;;;;;;;;;;6244683;28;20080;-68
2022/01/11 00:52:09;;;;;;;46.95;28.13;;;;;;;;;;6256743;28;20049;-67
2022/01/11 00:55:12;;;;;;;47.88;27.55;;;;;;;;;;6256521;28;20041;-68
2022/01/11 00:58:15;;;;;;;42.40;25.77;;;;;;;;;;6254261;28;20182;-67
2022/01/11 01:01:16;;;;;;;45.97;27.08;;;;;;;;;;6255451;28;20501;-67
2022/01/11 01:04:18;;;;;;;43.20;25.88;;;;;;;;;;6255356;28;20053;-67
2022/01/11 01:07:19;;;;;;;41.90;26.92;;;;;;;;;;6250744;28;20050;-67
2022/01/11 01:10:26;;;;;;;43.80;27.92;;;;;;;;;;6250708;28;20136;-67
2022/01/11 01:13:29;;;;;;;46.55;26.48;;;;;;;;;;6250008;28;20047;-67
2022/01/11 01:16:31;;;;;;;43.00;25.92;;;;;;;;;;6252128;28;20159;-67
2022/01/11 01:19:32;;;;;;;43.90;26.35;;;;;;;;;;6255158;28;20520;-67
2022/01/11 01:22:34;;;;;;;40.38;25.00;;;;;;;;;;6252918;28;20130;-67
2022/01/11 01:25:37;;;;;;;37.50;24.48;;;;;;;;;;6255376;28;20093;-67
2022/01/11 01:28:39;;;;;;;43.42;26.15;;;;;;;;;;6256275;28;20136;-67
2022/01/11 01:31:41;;;;;;;40.95;24.70;;;;;;;;;;6253282;28;20090;-67
2022/01/11 01:34:43;;;;;;;36.95;24.30;;;;;;;;;;6253499;28;20169;-67
2022/01/11 01:37:44;;;;;;;42.47;25.58;;;;;;;;;;6250290;28;20382;-67
2022/01/11 01:40:47;;;;;;;38.92;25.20;;;;;;;;;;6253736;28;20131;-67
2022/01/11 01:43:55;;;;;;;37.22;24.45;;;;;;;;;;6251986;28;20140;-67
2022/01/11 01:46:57;;;;;;;40.03;22.88;;;;;;;;;;6255743;28;20045;-67
2022/01/11 01:49:59;;;;;;;34.55;22.23;;;;;;;;;;6269613;28;20109;-67
2022/01/11 01:53:01;;;;;;;37.40;23.80;;;;;;;;;;6271490;28;20273;-68
2022/01/11 01:56:05;;;;;;;36.20;22.90;;;;;;;;;;6259413;28;20175;-67
2022/01/11 01:59:07;;;;;;;38.08;23.33;;;;;;;;;;6257609;28;20555;-67
2022/01/11 02:02:10;;;;;;;35.65;22.38;;;;;;;;;;6257278;28;20600;-67
2022/01/11 02:05:11;;;;;;;35.72;21.95;;;;;;;;;;6258933;28;20060;-68
2022/01/11 02:08:14;;;;;;;36.28;22.77;;;;;;;;;;6251984;28;20179;-67
2022/01/11 02:11:17;;;;;;;35.92;22.90;;;;;;;;;;6254754;28;20049;-67
2022/01/11 02:14:19;;;;;;;33.20;21.48;;;;;;;;;;6253176;28;20179;-67
2022/01/11 02:17:21;;;;;;;37.80;22.48;;;;;;;;;;6251399;28;20057;-67
2022/01/11 02:20:24;;;;;;;37.92;23.05;;;;;;;;;;6250274;28;20292;-68
2022/01/11 02:23:27;;;;;;;38.25;22.35;;;;;;;;;;6251337;28;20179;-67
2022/01/11 02:26:28;;;;;;;32.20;21.38;;;;;;;;;;6254928;28;20136;-67
2022/01/11 02:29:30;;;;;;;34.88;21.80;;;;;;;;;;6253247;28;20136;-67
2022/01/11 02:32:32;;;;;;;33.72;22.23;;;;;;;;;;6252695;28;20588;-67
2022/01/11 02:35:35;;;;;;;32.30;21.40;;;;;;;;;;6251015;28;20107;-67
2022/01/11 02:38:37;;;;;;;34.65;21.67;;;;;;;;;;6252889;28;20041;-67
2022/01/11 02:41:49;;;;;;;33.63;20.42;;;;;;;;;;6248431;28;20096;-67
2022/01/11 02:44:51;;;;;;;37.75;21.63;;;;;;;;;;6250165;28;20103;-68
2022/01/11 02:47:52;;;;;;;31.85;21.27;;;;;;;;;;6247678;28;20069;-68
2022/01/11 02:50:55;;;;;;;31.98;21.00;;;;;;;;;;6249510;28;20122;-68
2022/01/11 02:53:59;;;;;;;36.42;22.45;;;;;;;;;;6254060;28;20133;-67
2022/01/11 02:57:00;;;;;;;31.77;20.23;;;;;;;;;;6246509;28;20377;-67
2022/01/11 03:00:02;;;;;;;35.17;22.02;;;;;;;;;;6250786;28;20094;-67
2022/01/11 03:03:11;;;;;;;31.65;20.95;;;;;;;;;;6249465;28;20139;-67
2022/01/11 03:06:14;;;;;;;31.85;20.90;;;;;;;;;;6248968;28;20132;-67
2022/01/11 03:09:16;;;;;;;33.20;21.60;;;;;;;;;;6250156;28;20077;-67
2022/01/11 03:12:18;;;;;;;34.28;21.90;;;;;;;;;;6246910;28;20489;-67
2022/01/11 03:15:20;;;;;;;33.70;21.20;;;;;;;;;;6242998;28;20147;-67
2022/01/11 03:18:22;;;;;;;34.28;20.45;;;;;;;;;;6250098;28;20171;-66
2022/01/11 03:21:28;;;;;;;31.58;20.77;;;;;;;;;;6248511;28;20078;-67
2022/01/11 03:24:29;;;;;;;37.00;20.63;;;;;;;;;;6250735;28;20398;-66
2022/01/11 03:27:31;;;;;;;33.13;20.25;;;;;;;;;;6246459;28;20472;-66
2022/01/11 03:30:33;;;;;;;34.15;21.02;;;;;;;;;;6250184;28;20540;-67
2022/01/11 03:33:35;;;;;;;32.50;21.50;;;;;;;;;;6246178;28;20068;-67
2022/01/11 03:36:38;;;;;;;36.50;21.95;;;;;;;;;;6248347;28;20136;-67
2022/01/11 03:39:39;;;;;;;35.05;21.95;;;;;;;;;;6249071;28;20132;-67
2022/01/11 03:42:41;;;;;;;32.63;21.27;;;;;;;;;;6248370;28;20115;-67
2022/01/11 03:45:43;;;;;;;35.63;21.88;;;;;;;;;;6250577;28;20119;-67
2022/01/11 03:48:45;;;;;;;35.90;21.98;;;;;;;;;;6251373;28;20069;-67
2022/01/11 03:51:50;;;;;;;37.58;22.48;;;;;;;;;;6264401;28;20099;-67
2022/01/11 03:55:03;;;;;;;28.73;20.50;;;;;;;;;;6255520;28;20418;-66
2022/01/11 03:58:05;;;;;;;37.42;23.63;;;;;;;;;;6256255;28;20520;-66
2022/01/11 04:01:06;;;;;;;38.45;23.70;;;;;;;;;;6249311;28;20053;-66
2022/01/11 04:04:09;;;;;;;36.03;21.75;;;;;;;;;;6261094;28;20138;-66
2022/01/11 04:07:12;;;;;;;36.35;23.48;;;;;;;;;;6252813;28;20045;-67
2022/01/11 04:10:14;;;;;;;34.00;22.52;;;;;;;;;;6260462;28;20061;-66
2022/01/11 04:13:15;;;;;;;36.90;23.75;;;;;;;;;;6259077;28;20140;-66
2022/01/11 04:16:17;;;;;;;36.70;22.77;;;;;;;;;;6253948;28;20187;-66
2022/01/11 04:19:20;;;;;;;35.78;22.08;;;;;;;;;;6251352;28;20236;-67
2022/01/11 04:22:23;;;;;;;35.47;23.17;;;;;;;;;;6253326;28;20087;-66
2022/01/11 04:25:24;;;;;;;35.63;21.85;;;;;;;;;;6253777;28;20076;-66
2022/01/11 04:28:27;;;;;;;38.15;22.35;;;;;;;;;;6261367;28;20136;-67
2022/01/11 04:31:29;;;;;;;40.80;22.40;;;;;;;;;;6253776;28;20157;-67
2022/01/11 04:34:30;;;;;;;37.47;22.92;;;;;;;;;;6260025;28;20136;-67
2022/01/11 04:37:33;;;;;;;38.22;22.88;;;;;;;;;;6258997;28;20179;-68
2022/01/11 04:40:35;;;;;;;40.72;22.23;;;;;;;;;;6253571;28;20094;-67
2022/01/11 04:43:36;;;;;;;37.65;22.52;;;;;;;;;;6254361;28;20132;-67
2022/01/11 04:46:38;;;;;;;37.00;22.77;;;;;;;;;;6253577;28;20103;-67
2022/01/11 04:49:40;;;;;;;41.08;22.40;;;;;;;;;;6251403;28;20123;-67
2022/01/11 04:52:43;;;;;;;36.65;22.05;;;;;;;;;;6251581;28;20164;-67
2022/01/11 04:55:44;;;;;;;35.58;20.33;;;;;;;;;;6252054;28;20447;-67
2022/01/11 04:58:46;;;;;;;37.80;21.98;;;;;;;;;;6259129;28;20080;-67
2022/01/11 05:01:48;;;;;;;37.05;21.48;;;;;;;;;;6256887;28;20090;-67
2022/01/11 05:04:49;;;;;;;39.20;21.35;;;;;;;;;;6256239;28;20084;-66
2022/01/11 05:07:52;;;;;;;40.28;22.10;;;;;;;;;;6256929;28;20167;-66
2022/01/11 05:10:54;;;;;;;38.38;21.08;;;;;;;;;;6261004;28;20123;-66
2022/01/11 05:13:55;;;;;;;40.60;20.60;;;;;;;;;;6258835;28;20131;-66
2022/01/11 05:16:57;;;;;;;39.25;21.23;;;;;;;;;;6257385;28;20104;-66
2022/01/11 05:19:59;;;;;;;32.70;19.92;;;;;;;;;;6258049;28;20511;-66
2022/01/11 05:23:02;;;;;;;38.60;20.98;;;;;;;;;;6259351;28;20556;-67
2022/01/11 05:26:05;;;;;;;32.40;19.25;;;;;;;;;;6263776;28;20172;-65
2022/01/11 05:29:06;;;;;;;34.47;20.17;;;;;;;;;;6261746;28;20122;-66
2022/01/11 05:32:09;;;;;;;33.17;19.73;;;;;;;;;;6261767;28;20123;-66
2022/01/11 05:35:13;;;;;;;33.67;19.60;;;;;;;;;;6256516;28;20517;-66
2022/01/11 05:38:17;;;;;;;34.80;20.33;;;;;;;;;;6259955;28;20088;-67
2022/01/11 05:41:18;;;;;;;36.42;18.95;;;;;;;;;;6256317;28;20629;-66
2022/01/11 05:44:20;;;;;;;31.10;17.58;;;;;;;;;;6256430;28;20129;-67
2022/01/11 05:47:21;;;;;;;33.25;18.63;;;;;;;;;;6255732;28;20136;-67
2022/01/11 05:50:24;;;;;;;29.80;17.92;;;;;;;;;;6255770;28;20053;-67
2022/01/11 05:53:27;;;;;;;31.92;19.35;;;;;;;;;;6256017;28;20616;-66
2022/01/11 05:56:29;;;;;;;32.03;20.25;;;;;;;;;;6255900;28;20075;-66
2022/01/11 05:59:31;;;;;;;32.78;19.23;;;;;;;;;;6261705;28;20182;-66
2022/01/11 06:02:32;;;;;;;30.38;17.58;;;;;;;;;;6258132;28;20501;-67
2022/01/11 06:05:39;;;;;;;33.75;18.48;;;;;;;;;;6259860;28;20080;-68
2022/01/11 06:08:42;;;;;;;30.95;19.13;;;;;;;;;;6259413;28;20057;-68
2022/01/11 06:11:43;;;;;;;36.22;19.23;;;;;;;;;;6257815;28;20144;-67
2022/01/11 06:14:45;;;;;;;36.25;20.48;;;;;;;;;;6257299;28;20191;-66
2022/01/11 06:17:46;;;;;;;34.25;21.02;;;;;;;;;;6253350;28;20136;-67
2022/01/11 06:20:48;;;;;;;38.88;21.90;;;;;;;;;;6256033;28;20080;-66
2022/01/11 06:23:51;;;;;;;44.20;22.63;;;;;;;;;;6252392;28;20091;-67
2022/01/11 06:26:52;;;;;;;35.40;20.63;;;;;;;;;;6254985;28;20132;-65
2022/01/11 06:29:54;;;;;;;35.40;22.15;;;;;;;;;;6254654;28;20528;-65
2022/01/11 06:32:56;;;;;;;39.00;22.77;;;;;;;;;;6257751;28;20095;-66
2022/01/11 06:35:58;;;;;;;40.35;22.58;;;;;;;;;;6260554;28;20509;-66
2022/01/11 06:39:01;;;;;;;39.53;22.20;;;;;;;;;;6259289;28;20084;-66
2022/01/11 06:42:04;;;;;;;34.73;21.20;;;;;;;;;;6252845;28;20122;-66
2022/01/11 06:45:06;;;;;;;39.95;22.90;;;;;;;;;;6252230;28;20627;-66
2022/01/11 06:48:09;;;;;;;39.60;21.13;;;;;;;;;;6254366;28;20176;-66
2022/01/11 06:51:11;;;;;;;40.05;22.48;;;;;;;;;;6250786;28;20046;-66
2022/01/11 06:54:14;;;;;;;39.05;21.67;;;;;;;;;;6257603;28;20049;-64
2022/01/11 06:57:16;;;;;;;37.65;21.95;;;;;;;;;;6257452;28;20140;-65
2022/01/11 07:00:18;;;;;;;38.67;22.38;;;;;;;;;;6252938;28;20251;-65
2022/01/11 07:03:20;;;;;;;36.38;21.98;;;;;;;;;;6251452;28;20046;-66
2022/01/11 07:06:21;;;;;;;37.15;21.10;;;;;;;;;;6259499;28;20184;-65
2022/01/11 07:09:24;;;;;;;34.25;21.55;;;;;;;;;;6251018;28;20132;-66
2022/01/11 07:12:26;;;;;;;34.08;20.25;;;;;;;;;;6254550;28;20579;-65
2022/01/11 07:15:28;;;;;;;39.88;22.17;;;;;;;;;;6258338;28;20163;-65
2022/01/11 07:18:29;;;;;;;40.25;22.48;;;;;;;;;;6252362;28;20124;-65
2022/01/11 07:21:34;;;;;;;36.80;21.08;;;;;;;;;;6251644;28;20079;-65
2022/01/11 07:24:37;;;;;;;39.47;22.42;;;;;;;;;;6258527;28;20101;-65
2022/01/11 07:27:39;;;;;;;40.95;21.95;;;;;;;;;;6252655;28;20124;-65
2022/01/11 07:30:40;;;;;;;39.65;22.08;;;;;;;;;;6255965;28;20053;-65
2022/01/11 07:33:42;;;;;;;33.58;20.58;;;;;;;;;;6252903;28;20506;-65
2022/01/11 07:36:44;;;;;;;36.20;21.35;;;;;;;;;;6259360;28;20076;-65
2022/01/11 07:39:47;;;;;;;38.00;21.63;;;;;;;;;;6255505;28;20445;-65
2022/01/11 07:42:50;;;;;;;36.60;20.70;;;;;;;;;;6257052;28;20108;-66
2022/01/11 07:45:51;;;;;;;40.20;20.60;;;;;;;;;;6253561;28;20072;-65
2022/01/11 07:48:53;;;;;;;36.05;20.98;;;;;;;;;;6256083;28;20168;-66
2022/01/11 07:51:55;;;;;;;36.00;20.08;;;;;;;;;;6255915;28;20132;-65
2022/01/11 07:54:58;;;;;;;38.70;21.27;;;;;;;;;;6252231;28;20092;-65
2022/01/11 07:58:00;;;;;;;36.17;20.58;;;;;;;;;;6253343;28;20045;-65
2022/01/11 08:01:01;;;;;;;40.22;21.10;;;;;;;;;;6249299;28;20064;-66
2022/01/11 08:04:03;;;;;;;30.00;18.92;;;;;;;;;;6250624;28;20493;-62
2022/01/11 08:07:05;;;;;;;36.42;19.50;;;;;;;;;;6247577;28;20123;-65
2022/01/11 08:10:09;;;;;;;36.35;18.88;;;;;;;;;;6264292;28;20059;-65
2022/01/11 08:13:11;;;;;;;;;;;;;;;;;;6249399;28;20057;-65
2022/01/11 08:16:12;;;;;;;33.25;18.63;;;;;;;;;;6251980;28;20048;-65
2022/01/11 08:19:14;;;;;;;29.33;17.65;;;;;;;;;;6252095;28;20187;-65
2022/01/11 08:22:16;;;;;;;30.33;18.27;;;;;;;;;;6256147;28;20049;-65
2022/01/11 08:25:19;;;;;;;30.52;18.83;;;;;;;;;;6260511;28;20049;-65
2022/01/11 08:28:20;;;;;;;32.25;16.70;;;;;;;;;;6260378;28;20080;-66
2022/01/11 08:31:22;;;;;;;25.45;16.45;;;;;;;;;;6263480;28;20118;-65
2022/01/11 08:34:23;;;;;;;29.08;16.88;;;;;;;;;;6259154;28;20102;-65
2022/01/11 08:37:25;;;;;;;30.35;16.70;;;;;;;;;;6261386;28;20059;-65
2022/01/11 08:40:28;;;;;;;26.92;17.23;;;;;;;;;;6254010;28;20089;-65
2022/01/11 08:43:30;;;;;;;31.67;16.67;;;;;;;;;;6255780;28;20056;-65
2022/01/11 08:46:31;;;;;;;21.15;13.88;;;;;;;;;;6255722;28;20143;-66
2022/01/11 08:49:33;;;;;;;29.95;14.07;;;;;;;;;;6254858;28;20323;-65
2022/01/11 08:52:34;;;;;;;24.10;14.63;;;;;;;;;;6256369;28;20053;-65
2022/01/11 08:55:38;;;;;;;22.73;14.30;;;;;;;;;;6259719;28;20388;-65
2022/01/11 08:58:39;;;;;;;27.80;14.95;;;;;;;;;;6267735;28;20121;-65
2022/01/11 09:01:41;;;;;;;26.42;13.25;;;;;;;;;;6259283;28;20135;-65
2022/01/11 09:04:43;;;;;;;22.25;12.07;;;;;;;;;;6260378;28;20069;-65
2022/01/11 09:07:45;;;;;;;17.75;9.95;;;;;;;;;;6254936;28;20568;-65
2022/01/11 09:10:48;;;;;;;19.85;9.45;;;;;;;;;;6256591;28;20188;-65
2022/01/11 09:13:49;;;;;;;12.85;7.43;;;;;;;;;;6252371;28;20121;-66
2022/01/11 09:16:51;;;;;;;16.30;8.25;;;;;;;;;;6257341;28;20115;-65
2022/01/11 09:19:52;;;;;;;13.27;7.75;;;;;;;;;;6258024;28;20223;-66
2022/01/11 09:22:54;;;;;;;9.57;6.60;;;;;;;;;;6256250;28;20065;-65
2022/01/11 09:25:58;;;;;;;18.70;7.28;;;;;;;;;;6261181;28;20057;-66
2022/01/11 09:29:00;;;;;;;16.45;7.90;;;;;;;;;;6259873;28;20131;-64
2022/01/11 09:32:02;;;;;;;13.38;7.80;;;;;;;;;;6260067;28;20525;-64
2022/01/11 09:35:05;;;;;;;12.23;7.55;;;;;;;;;;6261893;28;20053;-64
2022/01/11 09:38:07;;;;;;;10.25;6.63;;;;;;;;;;6258036;28;20041;-65
2022/01/11 09:41:10;;;;;;;10.55;6.85;;;;;;;;;;6258617;28;20571;-64
2022/01/11 09:44:12;;;;;;;14.45;9.82;;;;;;;;;;6258841;28;20160;-65
2022/01/11 09:47:13;;;;;;;33.13;22.98;;;;;;;;;;6256315;28;20057;-64
2022/01/11 09:50:16;;;;;;;28.58;19.42;;;;;;;;;;6255919;28;20156;-66
2022/01/11 09:53:17;;;;;;;30.73;25.17;;;;;;;;;;6262582;28;20142;-66
2022/01/11 09:56:20;;;;;;;29.92;21.48;;;;;;;;;;6259384;28;20468;-66
2022/01/11 09:59:22;;;;;;;33.50;26.60;;;;;;;;;;6259949;28;20134;-66
2022/01/11 10:02:24;;;;;;;38.17;27.85;;;;;;;;;;6251442;28;20496;-66
2022/01/11 10:05:26;;;;;;;34.20;26.38;;;;;;;;;;6255860;28;20176;-66
2022/01/11 10:08:30;;;;;;;37.00;24.60;;;;;;;;;;6252723;28;20147;-66
2022/01/11 10:11:36;;;;;;;32.88;24.88;;;;;;;;;;6254681;28;20045;-66
2022/01/11 10:14:39;;;;;;;31.25;23.90;;;;;;;;;;6258503;28;20418;-66
2022/01/11 10:17:42;;;;;;;34.95;22.30;;;;;;;;;;6253404;28;20103;-66
2022/01/11 10:20:44;;;;;;;34.63;24.17;;;;;;;;;;6251595;28;20519;-66
2022/01/11 10:23:45;;;;;;;33.25;24.25;;;;;;;;;;6257367;28;20046;-66
2022/01/11 10:26:48;;;;;;;34.05;24.92;;;;;;;;;;6257235;28;20168;-66
2022/01/11 10:29:51;;;;;;;32.17;23.40;;;;;;;;;;6256740;28;20305;-66
2022/01/11 10:32:54;;;;;;;35.07;24.17;;;;;;;;;;6254206;28;20138;-65
2022/01/11 10:35:56;;;;;;;32.33;23.48;;;;;;;;;;6257363;28;20186;-67
2022/01/11 10:39:24;;;;;;;35.72;22.88;;;;;;;;;;6258001;28;20517;-66
2022/01/11 10:42:30;;;;;;;27.98;22.88;;;;;;;;;;6254747;28;20057;-66
2022/01/11 10:45:34;;;;;;;26.75;21.95;;;;;;;;;;6254326;28;20048;-66
2022/01/11 10:48:39;;;;;;;27.17;20.55;;;;;;;;;;6258929;28;20049;-66
2022/01/11 10:51:41;;;;;;;24.05;19.05;;;;;;;;;;6256291;28;20044;-66
2022/01/11 10:54:42;;;;;;;23.05;17.15;;;;;;;;;;6255800;28;20194;-65
2022/01/11 10:57:50;;;;;;;24.13;17.38;;;;;;;;;;6251475;28;20086;-66
2022/01/11 11:00:53;;;;;;;20.45;16.15;;;;;;;;;;6255282;28;20087;-66
2022/01/11 11:03:54;;;;;;;21.52;17.00;;;;;;;;;;6250095;28;20053;-66
2022/01/11 11:07:10;;;;;;;20.60;16.13;;;;;;;;;;6253457;28;20130;-66
2022/01/11 11:10:12;;;;;;;22.60;16.85;;;;;;;;;;6247823;28;20097;-67
2022/01/11 11:13:25;;;;;;;29.88;18.52;;;;;;;;;;6255222;28;20045;-66
2022/01/11 11:16:30;;;;;;;24.67;18.13;;;;;;;;;;6252654;28;20126;-66
2022/01/11 11:19:55;;;;;;;24.77;18.58;;;;;;;;;;6247627;28;20049;-66
2022/01/11 11:22:57;;;;;;;24.58;18.42;;;;;;;;;;6250670;28;20132;-65
2022/01/11 11:25:59;;;;;;;24.35;17.63;;;;;;;;;;6255332;28;20126;-65
2022/01/11 11:29:01;;;;;;;21.42;17.77;;;;;;;;;;6249669;28;20377;-64
2022/01/11 11:32:04;;;;;;;20.05;17.27;;;;;;;;;;6253339;28;20139;-66
2022/01/11 11:35:06;;;;;;;25.77;17.95;;;;;;;;;;6251904;28;20099;-68
2022/01/11 11:38:09;;;;;;;23.40;16.10;;;;;;;;;;6254482;28;20116;-67
2022/01/11 11:41:12;;;;;;;23.33;16.70;;;;;;;;;;6243979;28;20504;-68
2022/01/11 11:44:16;;;;;;;28.95;16.27;;;;;;;;;;6253662;28;20076;-68
2022/01/11 11:47:30;;;;;;;20.70;15.50;;;;;;;;;;6249642;28;20540;-68
2022/01/11 11:50:32;;;;;;;19.42;14.88;;;;;;;;;;6249431;28;20059;-68
2022/01/11 11:53:39;;;;;;;21.83;14.70;;;;;;;;;;6249477;28;20125;-68
2022/01/11 11:56:44;;;;;;;17.50;14.45;;;;;;;;;;6249645;28;20061;-68
2022/01/11 11:59:56;;;;;;;19.92;14.88;;;;;;;;;;6244535;28;20647;-68
2022/01/11 12:02:58;;;;;;;19.95;13.40;;;;;;;;;;6246857;28;20053;-68
2022/01/11 12:06:00;;;;;;;22.27;11.98;;;;;;;;;;6251376;28;20130;-68
2022/01/11 12:09:04;;;;;;;19.27;12.15;;;;;;;;;;6250687;28;20205;-68
2022/01/11 12:12:07;;;;;;;16.50;11.55;;;;;;;;;;6246441;28;20064;-69
2022/01/11 12:15:39;;;;;;;13.03;9.53;;;;;;;;;;6252144;28;20517;-67
2022/01/11 12:18:43;;;;;;;18.15;10.93;;;;;;;;;;6245095;28;20049;-66
2022/01/11 12:22:16;;;;;;;15.13;10.20;;;;;;;;;;6259571;28;20041;-65
2022/01/11 12:25:28;;;;;;;11.68;8.07;;;;;;;;;;6242517;28;20119;-66
2022/01/11 12:28:31;;;;;;;13.43;8.23;;;;;;;;;;6251670;28;20132;-66
2022/01/11 12:31:36;;;;;;;13.25;8.77;;;;;;;;;;6252926;28;20128;-66
2022/01/11 12:35:09;;;;;;;11.80;8.55;;;;;;;;;;6259916;28;20123;-66
2022/01/11 12:38:11;;;;;;;12.38;8.88;;;;;;;;;;6256493;28;20045;-66
2022/01/11 12:41:29;;;;;;;10.57;8.10;;;;;;;;;;6247124;28;20111;-65
2022/01/11 12:45:35;;;;;;;11.48;7.90;;;;;;;;;;6254646;28;20048;-65
2022/01/11 12:47:57;;;;;;;12.05;7.97;;;;;;;;;;6251965;28;20107;-67
2022/01/11 12:51:01;;;;;;;12.05;7.93;;;;;;;;;;6251786;28;20120;-67
2022/01/11 12:54:31;;;;;;;14.00;7.45;;;;;;;;;;6258174;28;20187;-67
2022/01/11 12:57:33;;;;;;;10.32;7.55;;;;;;;;;;6249571;28;20041;-67
2022/01/11 13:00:34;;;;;;;9.75;7.18;;;;;;;;;;6253649;28;20053;-68
2022/01/11 13:03:49;;;;;;;10.30;7.13;;;;;;;;;;6249402;28;20124;-67
2022/01/11 13:06:50;;;;;;;9.55;7.00;;;;;;;;;;6251168;28;20049;-66
2022/01/11 13:10:01;;;;;;;7.78;5.95;;;;;;;;;;6250460;28;20126;-67
2022/01/11 13:13:09;;;;;;;10.93;5.50;;;;;;;;;;6251838;28;20050;-67
2022/01/11 13:16:21;;;;;;;9.38;6.05;;;;;;;;;;6257414;28;20060;-67
2022/01/11 13:19:23;;;;;;;9.25;5.22;;;;;;;;;;6253922;28;20120;-67
2022/01/11 13:22:26;;;;;;;13.27;6.03;;;;;;;;;;6256601;28;20045;-67
2022/01/11 13:25:39;;;;;;;9.52;5.93;;;;;;;;;;6259279;28;20128;-67
2022/01/11 13:28:44;;;;;;;9.32;4.07;;;;;;;;;;6251726;28;20076;-67
2022/01/11 13:31:50;;;;;;;7.80;5.07;;;;;;;;;;6259312;28;20041;-67
2022/01/11 13:34:53;;;;;;;7.18;5.93;;;;;;;;;;6257282;28;20049;-66
2022/01/11 13:37:55;;;;;;;10.52;6.10;;;;;;;;;;6257269;28;20056;-67
2022/01/11 13:40:57;;;;;;;16.13;7.22;;;;;;;;;;6257927;28;20052;-67
2022/01/11 13:44:00;;;;;;;11.77;6.65;;;;;;;;;;6258740;28;20131;-67
2022/01/11 13:47:06;;;;;;;12.82;6.85;;;;;;;;;;6267047;28;20076;-68
2022/01/11 13:50:09;;;;;;;10.52;6.90;;;;;;;;;;6262381;28;20068;-67
2022/01/11 13:53:19;;;;;;;;;;;;;;;;;;6261591;28;20192;-67
2022/01/11 13:56:21;;;;;;;9.10;7.07;;;;;;;;;;6259277;28;20412;-67
2022/01/11 13:59:27;;;;;;;9.10;7.25;;;;;;;;;;6260081;28;20139;-67
2022/01/11 14:02:31;;;;;;;11.27;7.20;;;;;;;;;;6255785;28;20176;-67
2022/01/11 14:05:34;;;;;;;11.18;6.88;;;;;;;;;;6258339;28;20330;-67
2022/01/11 14:08:38;;;;;;;9.13;7.30;;;;;;;;;;6258115;28;20192;-67
2022/01/11 14:11:51;;;;;;;10.35;6.70;;;;;;;;;;6228333;28;20049;-67
2022/01/11 14:14:58;;;;;;;10.77;6.38;;;;;;;;;;6259625;28;20049;-67
2022/01/11 14:18:01;;;;;;;11.35;7.30;;;;;;;;;;6257381;28;20135;-67
2022/01/11 14:21:09;;;;;;;8.40;6.80;;;;;;;;;;6254977;28;20237;-67
2022/01/11 14:24:10;;;;;;;10.02;6.50;;;;;;;;;;6235119;28;20053;-67
2022/01/11 14:27:17;;;;;;;10.48;6.47;;;;;;;;;;6259132;28;20119;-67
2022/01/11 14:30:19;;;;;;;8.82;5.88;;;;;;;;;;6258140;28;20049;-68
2022/01/11 14:33:27;;;;;;;9.05;6.13;;;;;;;;;;6257359;28;20529;-67
2022/01/11 14:36:30;;;;;;;10.30;6.10;;;;;;;;;;6258499;28;20045;-68
2022/01/11 14:39:34;;;;;;;6.78;5.07;;;;;;;;;;6256046;28;20116;-67
2022/01/11 14:42:36;;;;;;;11.20;6.07;;;;;;;;;;6256829;28;20135;-67
2022/01/11 14:45:40;;;;;;;9.35;5.38;;;;;;;;;;6255941;28;20129;-67
2022/01/11 14:48:43;;;;;;;14.27;5.68;;;;;;;;;;6238594;28;20151;-67
2022/01/11 14:51:48;;;;;;;8.80;5.78;;;;;;;;;;6255233;28;20124;-67
2022/01/11 14:54:52;;;;;;;11.38;5.90;;;;;;;;;;6263833;28;20591;-67
2022/01/11 14:58:01;;;;;;;8.70;6.07;;;;;;;;;;6259649;28;20444;-67
2022/01/11 15:01:07;;;;;;;11.65;6.88;;;;;;;;;;6253325;28;20088;-67
2022/01/11 15:04:11;;;;;;;9.40;6.63;;;;;;;;;;6254545;28;20123;-67
2022/01/11 15:07:16;;;;;;;10.05;6.60;;;;;;;;;;6232604;28;20152;-67
2022/01/11 15:10:25;;;;;;;10.80;7.65;;;;;;;;;;6258486;28;20045;-66
2022/01/11 15:13:27;;;;;;;10.75;5.95;;;;;;;;;;6255439;28;20214;-67
2022/01/11 15:16:29;;;;;;;9.65;5.70;;;;;;;;;;6257166;28;20116;-67
2022/01/11 15:19:31;;;;;;;12.13;5.60;;;;;;;;;;6254321;28;20393;-66
2022/01/11 15:22:34;;;;;;;8.52;6.10;;;;;;;;;;6255340;28;20156;-67
2022/01/11 15:25:35;;;;;;;11.70;6.03;;;;;;;;;;6256474;28;20049;-67
2022/01/11 15:28:37;;;;;;;9.05;5.60;;;;;;;;;;6257377;28;20052;-67
2022/01/11 15:31:41;;;;;;;8.80;5.90;;;;;;;;;;6254445;28;20095;-69
2022/01/11 15:34:42;;;;;;;10.27;6.35;;;;;;;;;;6254758;28;20127;-67
2022/01/11 15:37:45;;;;;;;11.27;7.18;;;;;;;;;;6254211;28;20060;-67
2022/01/11 15:40:47;;;;;;;12.75;6.78;;;;;;;;;;6251814;28;20067;-67
2022/01/11 15:43:50;;;;;;;12.98;6.72;;;;;;;;;;6250416;28;20042;-67
2022/01/11 15:46:51;;;;;;;15.40;7.15;;;;;;;;;;6251088;28;20041;-67
2022/01/11 15:49:53;;;;;;;10.77;6.60;;;;;;;;;;6258061;28;20177;-67
2022/01/11 15:52:56;;;;;;;15.45;6.75;;;;;;;;;;6252708;28;20131;-67
2022/01/11 15:55:59;;;;;;;11.88;7.05;;;;;;;;;;6252471;28;20061;-67
2022/01/11 15:59:02;;;;;;;7.63;5.85;;;;;;;;;;6250911;28;20130;-67
2022/01/11 16:02:04;;;;;;;12.27;6.93;;;;;;;;;;6255232;28;20053;-67
2022/01/11 16:05:07;;;;;;;9.10;5.78;;;;;;;;;;6251989;28;20134;-67
2022/01/11 16:08:12;;;;;;;13.63;7.30;;;;;;;;;;6250675;28;20131;-67
2022/01/11 16:11:13;;;;;;;15.05;7.00;;;;;;;;;;6260241;28;20053;-67
2022/01/11 16:14:15;;;;;;;12.98;7.32;;;;;;;;;;6230619;28;20124;-67
2022/01/11 16:17:16;;;;;;;9.32;6.53;;;;;;;;;;6251257;28;20077;-67
2022/01/11 16:20:19;;;;;;;10.85;6.43;;;;;;;;;;6247777;28;20053;-67
2022/01/11 16:23:23;;;;;;;14.70;7.20;;;;;;;;;;6253341;28;20080;-67
2022/01/11 16:26:24;;;;;;;;;;;;;;;;;;6249213;28;20432;-69
2022/01/11 16:29:34;;;;;;;10.57;6.47;;;;;;;;;;6257527;28;20249;-70
2022/01/11 16:32:35;;;;;;;12.55;7.10;;;;;;;;;;6252364;28;20446;-69
2022/01/11 16:35:39;;;;;;;16.05;6.60;;;;;;;;;;6251475;28;20050;-69
2022/01/11 16:38:42;;;;;;;16.33;6.25;;;;;;;;;;6250876;28;20115;-69
2022/01/11 16:45:04;;;;;;;15.70;7.00;;;;;;;;;;6253784;28;20450;-69
2022/01/11 16:48:06;;;;;;;12.77;6.90;;;;;;;;;;6249834;28;20382;-69
2022/01/11 16:51:09;;;;;;;10.90;6.88;;;;;;;;;;6250536;28;20045;-69
2022/01/11 16:54:12;;;;;;;12.98;6.88;;;;;;;;;;6256045;28;20516;-69
2022/01/11 16:57:13;;;;;;;19.17;7.22;;;;;;;;;;6252626;28;20186;-69
2022/01/11 17:00:16;;;;;;;13.13;7.47;;;;;;;;;;6249310;28;20050;-69
2022/01/11 17:03:17;;;;;;;15.70;6.32;;;;;;;;;;6245942;28;20096;-69
2022/01/11 17:06:19;;;;;;;13.40;7.55;;;;;;;;;;6254521;28;20553;-69
2022/01/11 17:09:22;;;;;;;16.25;6.47;;;;;;;;;;6247047;28;20362;-69
2022/01/11 17:12:23;;;;;;;14.70;7.13;;;;;;;;;;6249192;28;20060;-69
2022/01/11 17:15:26;;;;;;;16.27;6.10;;;;;;;;;;6251253;28;20183;-69
2022/01/11 17:18:27;;;;;;;16.77;6.78;;;;;;;;;;6251564;28;20069;-69
2022/01/11 17:21:29;;;;;;;10.88;6.35;;;;;;;;;;6259837;28;20133;-70
2022/01/11 17:24:32;;;;;;;16.25;8.63;;;;;;;;;;6258589;28;20160;-68
2022/01/11 17:27:34;;;;;;;14.70;7.53;;;;;;;;;;6255812;28;20140;-69
2022/01/11 17:30:35;;;;;;;17.08;7.65;;;;;;;;;;6258743;28;20171;-70
2022/01/11 17:33:37;;;;;;;19.67;7.75;;;;;;;;;;6260042;28;20056;-69
2022/01/11 17:36:38;;;;;;;18.52;8.13;;;;;;;;;;6259916;28;20155;-67
2022/01/11 17:39:42;;;;;;;13.98;7.45;;;;;;;;;;6262829;28;20048;-69
2022/01/11 17:42:45;;;;;;;13.57;7.07;;;;;;;;;;6256657;28;20045;-69
2022/01/11 17:45:47;;;;;;;12.95;6.68;;;;;;;;;;6264059;28;20057;-69
2022/01/11 17:48:48;;;;;;;16.25;7.85;;;;;;;;;;6258587;28;20076;-69
2022/01/11 17:51:50;;;;;;;11.75;7.22;;;;;;;;;;6260973;28;20110;-69
2022/01/11 17:54:53;;;;;;;15.90;7.45;;;;;;;;;;6262013;28;20136;-69
2022/01/11 17:57:54;;;;;;;15.02;7.63;;;;;;;;;;6257316;28;20122;-69